Time;durP1;ratioP1;P1;durP2;ratioP2;P2;SDS_P1;SDS_P2;PMS_P1;PMS_P2;Temp;Humidity;BMP_temperature;BMP_pressure;BME280_temperature;BME280_humidity;BME280_pressure;Samples;Min_cycle;Max_cycle;Signal;HPM_P1;HPM_P2
2023/01/23 07:15:55;;;;;;;23.43;11.97;;;1.60;99.90;;;;;;4915882;29;20052;-83
2023/01/23 07:18:21;;;;;;;22.10;11.23;;;1.60;99.90;;;;;;4918868;29;20135;-82
2023/01/23 07:20:48;;;;;;;21.13;10.70;;;1.60;99.90;;;;;;4901619;29;20408;-83
2023/01/23 07:23:14;;;;;;;23.07;11.03;;;1.60;99.90;;;;;;4917871;29;20453;-83
2023/01/23 07:25:40;;;;;;;23.63;11.50;;;1.70;99.90;;;;;;4901624;29;20092;-83
2023/01/23 07:28:05;;;;;;;23.50;11.30;;;1.70;99.90;;;;;;4901799;29;20080;-85
2023/01/23 07:30:32;;;;;;;24.97;11.30;;;1.60;99.90;;;;;;4900276;29;20059;-85
2023/01/23 07:33:03;;;;;;;23.67;11.60;;;1.70;99.90;;;;;;4918215;29;20059;-85
2023/01/23 07:35:50;;;;;;;;;;;1.70;99.90;;;;;;4918863;29;20382;-83
2023/01/23 07:38:15;;;;;;;22.88;11.82;;;1.90;99.90;;;;;;4899982;29;19974;-84
2023/01/23 07:40:48;;;;;;;22.33;10.97;;;1.30;99.90;;;;;;4917555;29;20088;-83
2023/01/23 07:43:24;;;;;;;23.23;10.97;;;3.40;99.90;;;;;;4900285;29;20040;-84
2023/01/23 07:46:11;;;;;;;21.30;11.07;;;1.60;99.90;;;;;;4927782;23;20537;-84
2023/01/23 07:48:37;;;;;;;21.33;10.93;;;1.20;99.90;;;;;;4913247;29;20040;-84
2023/01/23 07:51:36;;;;;;;21.90;10.73;;;2.20;99.90;;;;;;4912315;29;20064;-84
2023/01/23 07:54:04;;;;;;;22.80;11.25;;;2.30;99.90;;;;;;4898944;29;20084;-83
2023/01/23 07:56:51;;;;;;;22.40;10.63;;;3.60;99.90;;;;;;4915836;29;20123;-83
2023/01/23 07:59:35;;;;;;;22.13;11.00;;;1.40;99.90;;;;;;4917011;29;20126;-83
2023/01/23 08:02:16;;;;;;;24.63;11.07;;;1.40;99.90;;;;;;4892429;29;20078;-84
2023/01/23 08:04:42;;;;;;;24.67;11.17;;;1.50;99.90;;;;;;4898082;29;20111;-84
2023/01/23 08:07:22;;;;;;;23.17;12.07;;;2.60;99.90;;;;;;4918890;29;20076;-83
2023/01/23 08:10:32;;;;;;;25.50;11.50;;;1.60;99.90;;;;;;4896847;29;20505;-83
2023/01/23 08:13:01;;;;;;;21.87;11.40;;;1.60;99.90;;;;;;4889472;29;20152;-83
2023/01/23 08:15:39;;;;;;;24.07;11.60;;;3.40;99.90;;;;;;4916051;29;20058;-83
2023/01/23 08:18:14;;;;;;;20.60;11.03;;;1.90;99.90;;;;;;4898155;29;20036;-83
2023/01/23 08:21:11;;;;;;;24.17;11.50;;;3.60;99.90;;;;;;4911187;29;20052;-83
2023/01/23 08:24:20;;;;;;;21.53;11.60;;;2.20;99.90;;;;;;4892279;29;20084;-82
2023/01/23 08:26:51;;;;;;;22.80;10.80;;;1.40;99.90;;;;;;4873646;29;20128;-83
2023/01/23 08:29:20;;;;;;;21.23;11.03;;;2.00;99.90;;;;;;4859276;29;20049;-84
2023/01/23 08:31:53;;;;;;;23.13;11.40;;;1.70;99.90;;;;;;4859652;29;20049;-82
2023/01/23 08:34:31;;;;;;;21.58;10.48;;;1.60;99.90;;;;;;4858228;29;20084;-82
2023/01/23 08:37:41;;;;;;;21.03;11.17;;;3.30;99.90;;;;;;4874508;29;20227;-82
2023/01/23 08:40:22;;;;;;;28.33;11.07;;;1.50;99.90;;;;;;4842384;29;20089;-82
2023/01/23 08:43:12;;;;;;;21.87;10.77;;;1.70;99.90;;;;;;4844901;29;20476;-82
2023/01/23 08:49:36;;;;;;;22.63;10.67;;;3.10;99.90;;;;;;4800835;29;20039;-82
2023/01/23 08:52:17;;;;;;;21.37;11.00;;;1.50;99.90;;;;;;4857931;29;20053;-82
2023/01/23 08:54:51;;;;;;;21.73;11.23;;;3.90;99.90;;;;;;4873956;29;20469;-82
2023/01/23 08:57:35;;;;;;;18.30;10.33;;;2.90;99.90;;;;;;4874474;29;20119;-81
2023/01/23 09:00:19;;;;;;;18.92;9.88;;;2.80;99.90;;;;;;4873634;29;20104;-83
2023/01/23 09:05:53;;;;;;;18.93;10.00;;;2.70;99.90;;;;;;4910219;29;20044;-82
2023/01/23 09:08:19;;;;;;;19.33;10.23;;;1.80;99.90;;;;;;4896014;29;20048;-81
2023/01/23 09:10:45;;;;;;;20.97;10.07;;;1.80;99.90;;;;;;4920877;23;20059;-81
2023/01/23 09:13:40;;;;;;;18.43;9.13;;;2.20;99.90;;;;;;4897915;23;20048;31
2023/01/23 09:16:30;;;;;;;18.47;9.00;;;2.30;99.90;;;;;;4838476;29;20058;-82
2023/01/23 09:19:11;;;;;;;18.00;9.20;;;2.80;99.90;;;;;;4838895;29;20045;-82
2023/01/23 09:22:21;;;;;;;18.93;9.00;;;1.90;99.90;;;;;;4841041;29;20038;-82
2023/01/23 09:24:53;;;;;;;18.10;9.47;;;3.10;99.90;;;;;;4851944;29;20160;-82
2023/01/23 09:27:34;;;;;;;17.57;9.13;;;2.10;99.90;;;;;;4858506;29;20069;-82
2023/01/23 09:30:00;;;;;;;18.10;9.37;;;2.50;99.90;;;;;;4840896;29;20402;-82
2023/01/23 09:32:37;;;;;;;16.00;9.10;;;3.90;99.90;;;;;;4841635;29;20034;-82
2023/01/23 09:35:22;;;;;;;17.67;8.90;;;2.50;99.90;;;;;;4858278;29;20049;-82
2023/01/23 09:38:03;;;;;;;16.60;8.97;;;2.20;99.90;;;;;;4863171;29;20049;-82
2023/01/23 09:40:54;;;;;;;17.70;8.60;;;2.80;99.90;;;;;;4840176;29;20068;-82
2023/01/23 09:43:58;;;;;;;17.70;9.00;;;2.30;99.90;;;;;;4842902;29;20506;-82
2023/01/23 09:46:39;;;;;;;18.17;8.60;;;2.10;99.90;;;;;;4862349;29;20056;-83
2023/01/23 09:53:17;;;;;;;16.90;8.97;;;3.30;99.90;;;;;;4830171;29;20058;-83
2023/01/23 09:56:01;;;;;;;17.47;9.67;;;2.70;99.90;;;;;;4782050;29;20120;-82
2023/01/23 09:59:04;;;;;;;19.23;9.02;;;3.40;99.90;;;;;;4827538;29;20057;-83
2023/01/23 10:01:50;;;;;;;18.57;9.20;;;2.50;99.90;;;;;;4832410;29;20091;-82
2023/01/23 10:04:31;;;;;;;18.20;9.47;;;3.80;99.90;;;;;;4829846;29;20046;-82
2023/01/23 10:07:20;;;;;;;18.57;9.10;;;4.60;99.90;;;;;;4814430;29;20136;-82
2023/01/23 10:10:39;;;;;;;16.97;9.37;;;2.60;99.90;;;;;;4814803;29;20078;-82
2023/01/23 10:13:16;;;;;;;17.70;9.63;;;1.70;99.90;;;;;;4801008;29;20087;-84
2023/01/23 10:16:13;;;;;;;18.47;9.63;;;2.60;99.90;;;;;;4844439;29;20058;-83
2023/01/23 10:18:48;;;;;;;16.53;8.80;;;2.60;99.90;;;;;;4858165;29;20037;-82
2023/01/23 10:21:37;;;;;;;18.50;9.87;;;2.60;99.90;;;;;;4846493;29;20406;-83
2023/01/23 10:24:10;;;;;;;19.50;9.30;;;2.60;99.90;;;;;;4860891;29;20049;-82
2023/01/23 10:26:41;;;;;;;19.10;9.30;;;2.70;99.90;;;;;;4854225;23;20074;-81
2023/01/23 10:29:35;;;;;;;18.83;10.37;;;2.60;99.90;;;;;;4885338;29;20104;-82
2023/01/23 10:32:23;;;;;;;20.38;10.48;;;2.70;99.90;;;;;;4900239;29;20047;-84
2023/01/23 10:34:56;;;;;;;19.80;11.30;;;2.40;99.90;;;;;;4906896;29;20400;-82
2023/01/23 10:37:53;;;;;;;16.40;9.40;;;2.70;99.90;;;;;;4892611;29;20520;-83
2023/01/23 10:43:13;;;;;;;20.33;10.53;;;2.70;99.90;;;;;;4877164;29;20484;-83
2023/01/23 10:45:40;;;;;;;19.97;10.87;;;2.80;99.90;;;;;;4893517;29;20071;-83
2023/01/23 10:48:31;;;;;;;19.90;10.40;;;2.80;99.90;;;;;;4890455;29;20047;-82
2023/01/23 10:50:58;;;;;;;17.90;9.47;;;2.80;99.90;;;;;;4907060;29;20058;-83
2023/01/23 10:53:24;;;;;;;17.93;10.33;;;2.80;99.90;;;;;;4895910;29;20036;-82
2023/01/23 10:55:54;;;;;;;17.90;9.80;;;2.80;99.90;;;;;;4893909;29;20055;-84
2023/01/23 10:58:40;;;;;;;17.57;10.13;;;2.80;99.90;;;;;;4907193;29;20059;-84
2023/01/23 11:01:22;;;;;;;16.97;9.80;;;2.90;99.90;;;;;;4910522;29;20088;-83
2023/01/23 11:03:48;;;;;;;18.53;10.43;;;2.90;99.90;;;;;;4911442;29;20059;-83
2023/01/23 11:06:19;;;;;;;19.27;10.37;;;2.80;99.90;;;;;;4906975;29;20044;-84
2023/01/23 11:09:13;;;;;;;18.83;10.10;;;2.90;99.90;;;;;;4888763;29;20405;-84
2023/01/23 11:12:16;;;;;;;;;;;3.10;99.90;;;;;;4910410;29;20524;-83
2023/01/23 11:15:21;;;;;;;17.20;9.57;;;2.70;99.90;;;;;;4898690;29;19970;-82
2023/01/23 11:17:51;;;;;;;17.80;9.27;;;2.50;99.90;;;;;;4897717;29;20075;-83
2023/01/23 11:23:35;;;;;;;17.27;9.00;;;3.10;99.90;;;;;;4890362;29;20060;-83
2023/01/23 11:26:02;;;;;;;20.50;9.83;;;3.10;99.90;;;;;;4914510;29;20071;-83
2023/01/23 11:28:57;;;;;;;19.30;9.57;;;2.90;99.90;;;;;;4895838;29;20100;-83
2023/01/23 11:35:07;;;;;;;19.60;9.80;;;2.50;99.90;;;;;;4887079;29;20060;-84
2023/01/23 11:37:44;;;;;;;17.97;9.80;;;4.10;99.90;;;;;;4897865;29;20084;-84
2023/01/23 11:40:26;;;;;;;17.80;9.37;;;2.30;99.90;;;;;;4882316;29;20045;-84
2023/01/23 11:43:32;;;;;;;20.57;10.00;;;3.60;99.90;;;;;;4841106;29;20057;-84
2023/01/23 11:49:56;;;;;;;18.35;9.55;;;2.90;99.90;;;;;;4825565;29;20061;-82
2023/01/23 11:56:05;;;;;;;17.00;9.47;;;3.20;99.90;;;;;;4840339;29;20084;-83
2023/01/23 11:59:08;;;;;;;17.03;9.47;;;2.50;99.90;;;;;;4845264;29;20515;-83
2023/01/23 12:01:36;;;;;;;18.63;9.43;;;3.70;99.90;;;;;;4834750;29;20160;-83
2023/01/23 12:04:39;;;;;;;20.20;9.93;;;3.90;99.90;;;;;;4832421;29;20129;-83
2023/01/23 12:11:11;;;;;;;17.17;9.37;;;3.40;99.90;;;;;;4849622;29;20053;-83
2023/01/23 12:14:11;;;;;;;18.03;10.23;;;3.00;99.90;;;;;;4854782;29;20453;-83
2023/01/23 12:17:02;;;;;;;18.10;9.17;;;2.50;99.90;;;;;;4891691;29;20119;-83
2023/01/23 12:20:02;;;;;;;18.03;9.60;;;3.40;99.90;;;;;;4889200;29;20053;-83
2023/01/23 12:25:21;;;;;;;17.53;9.53;;;2.60;99.90;;;;;;4940469;23;20404;-83
2023/01/23 12:27:56;;;;;;;18.20;9.43;;;3.70;99.90;;;;;;4904665;29;20500;-83
2023/01/23 12:30:47;;;;;;;20.43;10.00;;;3.40;99.90;;;;;;4904940;29;20072;-82
2023/01/23 12:33:49;;;;;;;20.10;10.20;;;3.50;99.90;;;;;;4909440;29;20079;-83
2023/01/23 12:36:33;;;;;;;18.17;9.73;;;3.50;99.90;;;;;;4896318;29;20044;-83
2023/01/23 12:39:18;;;;;;;;;;;3.50;99.90;;;;;;4896602;29;20059;-83
2023/01/23 12:42:02;;;;;;;17.93;9.30;;;3.40;99.90;;;;;;4891059;29;20017;-83
2023/01/23 12:44:35;;;;;;;18.90;10.55;;;3.50;99.90;;;;;;4895691;29;20040;-84
2023/01/23 12:47:09;;;;;;;19.20;10.30;;;3.60;99.90;;;;;;4887639;29;20041;-82
2023/01/23 12:49:49;;;;;;;;;;;3.60;99.90;;;;;;4904144;29;20048;-83
2023/01/23 12:52:24;;;;;;;18.83;10.00;;;3.60;99.90;;;;;;4899317;29;19923;-82
2023/01/23 12:55:16;;;;;;;17.97;10.10;;;3.70;99.90;;;;;;4899434;29;20154;-83
2023/01/23 12:57:43;;;;;;;18.17;9.90;;;3.70;99.90;;;;;;4903209;29;20055;-82
2023/01/23 13:00:47;;;;;;;16.57;9.50;;;3.70;99.90;;;;;;4917545;29;20060;-83
2023/01/23 13:03:47;;;;;;;18.93;10.07;;;3.80;99.90;;;;;;4880841;29;20059;-86
2023/01/23 13:10:02;;;;;;;;;;;;;;;;;;;;;
2023/01/23 13:13:05;;;;;;;17.13;9.80;;;3.60;99.90;;;;;;4865372;29;20504;-85
2023/01/23 13:15:36;;;;;;;17.63;9.47;;;3.40;99.90;;;;;;4915762;29;20058;-84
2023/01/23 13:28:28;;;;;;;22.93;11.93;;;2.70;99.90;;;;;;4916682;29;20127;-85
2023/01/23 13:31:02;;;;;;;20.33;10.77;;;3.00;99.90;;;;;;4898819;29;20060;-85
2023/01/23 13:33:53;;;;;;;18.87;9.87;;;4.20;99.90;;;;;;4899679;29;20116;-84
2023/01/23 13:36:37;;;;;;;18.53;10.37;;;4.80;99.90;;;;;;4915610;29;20496;-85
2023/01/23 13:39:28;;;;;;;18.47;10.70;;;3.20;99.90;;;;;;4899508;29;20067;-85
2023/01/23 13:42:25;;;;;;;19.30;10.60;;;3.30;99.90;;;;;;4916852;29;20044;-85
2023/01/23 13:45:28;;;;;;;20.43;10.00;;;4.30;99.90;;;;;;4898742;29;20044;-84
2023/01/23 13:50:48;;;;;;;19.83;11.13;;;3.80;99.90;;;;;;4931069;23;20220;-85
2023/01/23 14:00:37;;;;;;;19.60;10.20;;;3.10;99.90;;;;;;4916161;29;20051;-85
2023/01/23 14:06:34;;;;;;;19.83;9.97;;;3.80;99.90;;;;;;4915759;29;20481;-86
2023/01/23 14:09:01;;;;;;;19.43;10.57;;;3.40;99.90;;;;;;4916191;29;20485;-83
2023/01/23 14:11:40;;;;;;;23.23;11.13;;;3.10;99.90;;;;;;4898335;29;20095;-84
2023/01/23 14:17:51;;;;;;;18.90;10.63;;;2.70;99.90;;;;;;4879464;29;20060;-85
2023/01/23 14:20:26;;;;;;;19.23;11.17;;;2.90;99.90;;;;;;4879836;29;20486;-85
2023/01/23 14:22:57;;;;;;;21.90;11.10;;;3.20;99.90;;;;;;4880729;29;20397;-85
2023/01/23 14:29:46;;;;;;;20.47;10.90;;;4.20;99.90;;;;;;4897673;29;20541;-84
2023/01/23 14:32:45;;;;;;;20.00;11.57;;;2.50;99.90;;;;;;4879130;29;20088;-84
2023/01/23 14:35:38;;;;;;;21.97;11.57;;;5.80;99.90;;;;;;4884083;29;20177;-85
2023/01/23 14:38:29;;;;;;;20.07;11.17;;;4.10;99.90;;;;;;4883411;29;20077;-85
2023/01/23 14:41:03;;;;;;;21.17;11.30;;;3.80;99.90;;;;;;4900075;29;20057;-85
2023/01/23 14:46:31;;;;;;;21.47;11.23;;;3.50;99.90;;;;;;4931150;23;20147;-84
2023/01/23 14:49:01;;;;;;;20.63;11.80;;;3.70;99.90;;;;;;4912098;23;20048;-85
2023/01/23 14:52:05;;;;;;;20.83;10.97;;;2.70;99.90;;;;;;4919881;29;20104;-85
2023/01/23 14:54:52;;;;;;;20.43;11.17;;;3.80;99.90;;;;;;4920329;29;20052;-86
2023/01/23 14:57:23;;;;;;;21.23;10.83;;;1.90;99.90;;;;;;4938731;29;20047;-85
2023/01/23 15:00:13;;;;;;;20.53;10.90;;;5.30;99.90;;;;;;4926255;29;20564;-84
2023/01/23 15:06:26;;;;;;;20.27;10.73;;;2.60;99.90;;;;;;4898918;29;20126;-85
2023/01/23 15:13:34;;;;;;;20.27;11.10;;;4.10;99.90;;;;;;4996118;23;20040;-85
2023/01/23 15:16:27;;;;;;;19.80;11.13;;;3.60;99.90;;;;;;4809664;29;20384;-84
2023/01/23 15:35:39;;;;;;;20.63;11.50;;;3.00;99.90;;;;;;4794050;29;20051;-84
2023/01/23 15:38:19;;;;;;;21.93;11.80;;;3.60;99.90;;;;;;4756008;30;20274;-84
2023/01/23 15:41:54;;;;;;;23.40;12.83;;;3.00;99.90;;;;;;4905225;23;20108;-84
2023/01/23 15:44:25;;;;;;;22.30;11.93;;;3.20;99.90;;;;;;4881428;29;20135;-84
2023/01/23 15:46:51;;;;;;;23.47;12.63;;;2.10;99.90;;;;;;4881450;29;20044;-84
2023/01/23 15:49:19;;;;;;;24.33;12.80;;;2.90;99.90;;;;;;4890880;23;20074;-84
2023/01/23 15:51:45;;;;;;;24.27;13.00;;;2.50;99.90;;;;;;4916337;29;20052;-83
2023/01/23 15:54:34;;;;;;;22.57;12.40;;;3.00;99.90;;;;;;4917430;29;20127;-84
2023/01/23 15:57:26;;;;;;;23.07;13.17;;;2.90;99.90;;;;;;4921455;29;20139;-82
2023/01/23 15:59:59;;;;;;;22.57;12.40;;;3.40;99.90;;;;;;4807413;29;20576;-83
2023/01/23 16:02:36;;;;;;;24.83;12.53;;;3.10;99.90;;;;;;4808557;29;20140;-83
2023/01/23 16:05:22;;;;;;;23.30;12.47;;;4.30;99.90;;;;;;4826791;29;20107;-82
2023/01/23 16:07:48;;;;;;;23.80;12.77;;;2.90;99.90;;;;;;4810327;29;20141;-82
2023/01/23 16:13:47;;;;;;;;;;;;;;;;;;;;;
2023/01/23 16:16:41;;;;;;;26.57;16.07;;;3.80;99.90;;;;;;4836166;29;20061;-86
2023/01/23 16:19:13;;;;;;;28.40;17.97;;;4.60;99.90;;;;;;4876904;29;20064;-87
2023/01/23 16:21:45;;;;;;;25.73;14.93;;;2.90;99.90;;;;;;4862659;29;20052;-87
2023/01/23 16:32:59;;;;;;;;;;;;;;;;;;;;;
2023/01/23 16:38:58;;;;;;;24.07;14.30;;;1.70;99.90;;;;;;4749546;30;20053;-85
2023/01/23 16:42:03;;;;;;;25.03;14.17;;;2.80;99.90;;;;;;4735778;30;20052;-87
2023/01/23 16:44:29;;;;;;;23.90;13.77;;;3.10;99.90;;;;;;4879816;23;20072;-87
2023/01/23 16:47:46;;;;;;;24.17;13.90;;;2.50;99.90;;;;;;5068085;23;20501;-87
2023/01/23 16:50:13;;;;;;;25.00;14.13;;;3.30;99.90;;;;;;4900202;29;20493;-88
2023/01/23 16:53:20;;;;;;;26.20;14.77;;;2.60;99.90;;;;;;4916248;29;20118;-87
2023/01/23 16:55:54;;;;;;;23.70;12.77;;;3.00;99.90;;;;;;4899808;29;20134;-88
2023/01/23 16:58:43;;;;;;;23.10;12.77;;;3.20;99.90;;;;;;4916227;29;20055;-87
2023/01/23 17:01:38;;;;;;;25.80;12.43;;;2.70;99.90;;;;;;4913370;29;20044;-88
2023/01/23 17:04:16;;;;;;;25.97;13.67;;;3.00;99.90;;;;;;4916576;29;20071;-88
2023/01/23 17:06:42;;;;;;;27.10;14.67;;;2.30;99.90;;;;;;4914051;29;20108;-88
2023/01/23 17:09:12;;;;;;;24.73;12.23;;;2.10;99.90;;;;;;4875538;29;20072;-88
2023/01/23 17:12:28;;;;;;;26.33;13.80;;;2.30;99.90;;;;;;4860864;29;20049;-88
2023/01/23 17:15:06;;;;;;;21.97;12.43;;;2.90;99.90;;;;;;4837729;29;20054;-89
2023/01/23 17:17:53;;;;;;;25.10;13.23;;;2.80;99.90;;;;;;4823242;29;20566;-88
2023/01/23 17:20:29;;;;;;;24.90;12.83;;;2.30;99.90;;;;;;4873221;29;20132;-88
2023/01/23 17:23:00;;;;;;;25.23;13.17;;;4.60;99.90;;;;;;4878783;29;20614;-88
2023/01/23 17:25:46;;;;;;;24.97;13.90;;;2.70;99.90;;;;;;4876466;29;20086;-88
2023/01/23 17:28:13;;;;;;;24.43;13.60;;;3.20;99.90;;;;;;4932111;23;20059;-88
2023/01/23 17:30:44;;;;;;;27.23;13.63;;;3.00;99.90;;;;;;4906107;29;20144;-87
2023/01/23 17:33:20;;;;;;;29.03;14.67;;;2.30;99.90;;;;;;5200338;23;20075;-87
2023/01/23 17:35:47;;;;;;;29.17;15.43;;;2.80;99.90;;;;;;4900383;23;20055;-87
2023/01/23 17:39:24;;;;;;;28.53;14.57;;;2.50;99.90;;;;;;4915904;29;20077;-87
2023/01/23 17:42:53;;;;;;;28.57;16.47;;;1.70;99.90;;;;;;4917635;29;20385;-87
2023/01/23 17:46:27;;;;;;;25.83;13.50;;;2.10;99.90;;;;;;4894782;29;20091;-88
2023/01/23 17:52:31;;;;;;;25.77;13.80;;;3.30;99.90;;;;;;4920518;29;20048;-88
2023/01/23 17:55:19;;;;;;;25.37;12.50;;;3.70;99.90;;;;;;4917607;29;20051;-89
2023/01/23 17:58:00;;;;;;;23.27;12.60;;;2.50;99.90;;;;;;4898622;29;20517;-88
2023/01/23 18:00:49;;;;;;;25.07;13.17;;;2.70;99.90;;;;;;4912425;29;20051;-88
2023/01/23 18:03:33;;;;;;;24.03;12.30;;;3.60;99.90;;;;;;4913023;29;20067;-88
2023/01/23 18:05:59;;;;;;;21.85;12.25;;;2.40;99.90;;;;;;4896271;29;20052;-89
2023/01/23 18:08:40;;;;;;;21.60;12.10;;;2.80;99.90;;;;;;4897267;29;20036;-88
2023/01/23 18:11:22;;;;;;;27.70;14.73;;;2.60;99.90;;;;;;4913500;29;20072;-88
2023/01/23 18:14:37;;;;;;;25.07;12.37;;;2.70;99.90;;;;;;4919300;29;20432;-89
2023/01/23 18:17:50;;;;;;;22.60;12.20;;;2.70;99.90;;;;;;4917946;29;20055;-88
2023/01/23 18:20:33;;;;;;;23.90;13.97;;;2.30;99.90;;;;;;4902523;29;20044;-89
2023/01/23 18:22:59;;;;;;;25.23;12.97;;;1.80;99.90;;;;;;4902364;29;20048;-87
2023/01/23 18:25:25;;;;;;;24.27;13.53;;;2.50;99.90;;;;;;4919753;23;20412;-88
2023/01/23 18:28:07;;;;;;;25.20;14.43;;;2.70;99.90;;;;;;4903240;23;20100;-88
2023/01/23 18:30:58;;;;;;;25.10;14.10;;;3.30;99.90;;;;;;4918804;29;20412;-88
2023/01/23 18:33:48;;;;;;;25.97;14.20;;;2.50;99.90;;;;;;4917436;29;20407;-89
2023/01/23 18:36:38;;;;;;;27.93;13.77;;;3.00;99.90;;;;;;4916018;29;20043;-87
2023/01/23 18:39:52;;;;;;;28.20;15.57;;;2.10;99.90;;;;;;4892425;29;20056;-89
2023/01/23 18:42:43;;;;;;;27.42;15.02;;;2.50;99.90;;;;;;4916666;23;20068;-87
2023/01/23 18:45:13;;;;;;;25.77;13.67;;;1.80;99.90;;;;;;4901600;29;20060;-87
2023/01/23 18:47:39;;;;;;;24.13;13.20;;;2.50;99.90;;;;;;4919423;29;20054;-87
2023/01/23 18:50:21;;;;;;;25.63;13.60;;;2.70;99.90;;;;;;4919393;29;20095;-88
2023/01/23 18:53:17;;;;;;;27.97;15.50;;;2.50;99.90;;;;;;4901599;29;20059;-87
2023/01/23 18:56:14;;;;;;;32.23;16.83;;;3.10;99.90;;;;;;4899508;29;20052;-87
2023/01/23 18:58:43;;;;;;;30.03;18.13;;;2.10;99.90;;;;;;4900963;29;20060;-87
2023/01/23 19:01:55;;;;;;;26.20;14.17;;;2.50;99.90;;;;;;4901330;29;20560;-87
2023/01/23 19:04:48;;;;;;;32.17;20.40;;;2.50;99.90;;;;;;4901515;29;20079;-87
2023/01/23 19:07:32;;;;;;;27.90;14.13;;;2.50;99.90;;;;;;4875071;29;20098;-87
2023/01/23 19:09:58;;;;;;;30.52;15.18;;;2.60;99.90;;;;;;4918508;29;20063;-88
2023/01/23 19:12:53;;;;;;;30.00;15.60;;;2.50;99.90;;;;;;4901336;29;20048;-87
2023/01/23 19:15:40;;;;;;;27.17;14.87;;;2.80;99.90;;;;;;4871816;29;20067;-87
2023/01/23 19:18:25;;;;;;;29.83;15.77;;;2.50;99.90;;;;;;4906354;29;20048;-87
2023/01/23 19:21:12;;;;;;;28.00;15.03;;;4.10;99.90;;;;;;4919031;29;20052;-87
2023/01/23 19:23:58;;;;;;;29.90;15.07;;;2.50;99.90;;;;;;4908160;23;20079;-88
2023/01/23 19:32:15;;;;;;;28.23;15.03;;;2.80;99.90;;;;;;4882372;29;20564;-89
2023/01/23 19:37:52;;;;;;;29.30;14.93;;;2.10;99.90;;;;;;4918462;23;20048;-88
2023/01/23 19:40:18;;;;;;;29.52;15.32;;;1.50;99.90;;;;;;4917471;29;20040;-89
2023/01/23 19:42:56;;;;;;;27.83;14.87;;;3.10;99.90;;;;;;4899764;29;20099;-89
2023/01/23 19:45:22;;;;;;;28.70;14.87;;;2.30;99.90;;;;;;4916932;29;20148;-89
2023/01/23 19:48:07;;;;;;;30.70;16.27;;;2.60;99.90;;;;;;4900880;29;20544;-90
2023/01/23 19:50:33;;;;;;;26.40;14.73;;;2.20;99.90;;;;;;4927279;28;20020;-90
2023/01/23 19:52:59;;;;;;;29.60;15.93;;;2.30;99.90;;;;;;4928431;23;20442;-89
2023/01/23 19:55:49;;;;;;;32.73;19.93;;;2.50;99.90;;;;;;4899757;29;20512;-89
2023/01/23 19:58:36;;;;;;;32.87;18.00;;;2.40;99.90;;;;;;4963023;23;20043;-89
2023/01/23 20:01:54;;;;;;;27.97;15.43;;;2.50;99.90;;;;;;4940190;23;20586;-89
2023/01/23 20:04:21;;;;;;;27.23;14.07;;;2.50;99.90;;;;;;4899263;29;20059;-89
2023/01/23 20:06:58;;;;;;;33.07;17.87;;;5.00;99.90;;;;;;4917621;29;20040;-89
2023/01/23 20:09:36;;;;;;;31.53;19.77;;;2.10;99.90;;;;;;4899900;29;20055;-89
2023/01/23 20:12:12;;;;;;;27.90;16.33;;;2.20;99.90;;;;;;4899792;29;20035;-88
2023/01/23 20:14:55;;;;;;;31.23;15.63;;;2.40;99.90;;;;;;4913752;23;20076;-88
2023/01/23 20:17:36;;;;;;;31.63;15.20;;;2.00;99.90;;;;;;4918272;29;20047;-87
2023/01/23 20:20:17;;;;;;;30.90;14.90;;;3.30;99.90;;;;;;4935733;29;20505;-87
2023/01/23 20:22:46;;;;;;;28.33;15.23;;;2.50;99.90;;;;;;4927636;29;20103;-90
2023/01/23 20:25:27;;;;;;;26.17;14.60;;;4.50;99.90;;;;;;4906263;23;20048;-91
2023/01/23 20:27:52;;;;;;;27.30;15.97;;;2.50;99.90;;;;;;4909169;29;20035;-86
2023/01/23 20:30:35;;;;;;;29.90;15.27;;;2.50;99.90;;;;;;4961332;23;20501;-87
2023/01/23 20:33:00;;;;;;;27.07;14.30;;;2.90;99.90;;;;;;4917274;29;20080;-87
2023/01/23 20:35:26;;;;;;;30.60;15.67;;;2.20;99.90;;;;;;4900022;29;20059;-88
2023/01/23 20:38:04;;;;;;;29.93;14.77;;;3.60;99.90;;;;;;4916265;29;20417;-88
2023/01/23 20:40:53;;;;;;;27.77;14.23;;;4.40;99.90;;;;;;4933536;29;20044;-88
2023/01/23 20:43:41;;;;;;;30.83;15.13;;;2.40;99.90;;;;;;4866746;29;20052;-88
2023/01/23 20:46:07;;;;;;;29.37;16.03;;;3.80;99.90;;;;;;4899626;29;20052;-87
2023/01/23 20:48:54;;;;;;;32.20;17.83;;;2.60;99.90;;;;;;4900202;29;20052;-88
2023/01/23 20:51:20;;;;;;;35.37;20.47;;;2.60;99.90;;;;;;4900536;29;20560;-88
2023/01/23 20:53:47;;;;;;;36.37;21.23;;;2.30;99.90;;;;;;4899582;29;20094;-88
2023/01/23 20:56:31;;;;;;;31.23;17.23;;;2.40;99.90;;;;;;4904586;29;20048;-88
2023/01/23 21:02:38;;;;;;;31.17;15.90;;;2.50;99.90;;;;;;4859190;29;20145;-88
2023/01/23 21:05:20;;;;;;;31.43;16.20;;;1.40;99.90;;;;;;4853450;29;20046;-88
2023/01/23 21:08:07;;;;;;;32.47;16.43;;;2.80;99.90;;;;;;4836420;29;20058;-87
2023/01/23 21:10:51;;;;;;;32.27;17.47;;;3.30;99.90;;;;;;4827026;29;20057;-87
2023/01/23 21:13:35;;;;;;;33.25;17.38;;;2.10;99.90;;;;;;4831148;29;20089;-87
2023/01/23 21:16:27;;;;;;;30.47;15.90;;;4.50;99.90;;;;;;4860355;29;20069;-87
2023/01/23 21:21:28;;;;;;;46.60;27.37;;;2.50;99.90;;;;;;4941407;23;20071;-87
2023/01/23 21:23:54;;;;;;;31.00;17.83;;;3.60;99.90;;;;;;4913778;29;20048;-88
2023/01/23 21:26:40;;;;;;;30.10;15.97;;;3.20;99.90;;;;;;4898755;29;20044;-87
2023/01/23 21:29:08;;;;;;;43.80;25.17;;;2.80;99.90;;;;;;4890008;29;20525;-87
2023/01/23 21:31:56;;;;;;;68.03;42.20;;;2.90;99.90;;;;;;4898989;29;20441;-87
2023/01/23 21:34:43;;;;;;;40.70;24.83;;;3.30;99.90;;;;;;4905193;29;20501;-87
2023/01/23 21:37:09;;;;;;;52.93;32.13;;;4.00;99.90;;;;;;4898333;29;20060;-87
2023/01/23 21:40:26;;;;;;;41.73;23.60;;;2.40;99.90;;;;;;4968053;23;20015;-87
2023/01/23 21:43:58;;;;;;;40.50;22.80;;;2.40;99.90;;;;;;4903547;29;20044;-87
2023/01/23 21:46:49;;;;;;;40.27;22.97;;;2.80;99.90;;;;;;4916414;29;20056;-87
2023/01/23 21:49:29;;;;;;;36.63;22.40;;;2.50;99.90;;;;;;4911731;29;20492;-87
2023/01/23 21:52:07;;;;;;;36.33;22.23;;;3.90;99.90;;;;;;4888294;29;20052;-87
2023/01/23 21:54:40;;;;;;;35.40;20.60;;;3.60;99.90;;;;;;4915486;29;20508;-87
2023/01/23 21:57:14;;;;;;;33.25;17.27;;;4.50;99.90;;;;;;4920318;23;20106;-87
2023/01/23 22:03:49;;;;;;;31.17;16.83;;;1.20;99.90;;;;;;4852177;29;20065;-87
2023/01/23 22:06:24;;;;;;;33.07;17.50;;;2.50;99.90;;;;;;4944179;23;20063;-87
2023/01/23 22:09:17;;;;;;;31.30;16.30;;;3.90;99.90;;;;;;4902234;29;20118;-87
2023/01/23 22:12:01;;;;;;;33.93;17.27;;;4.30;99.90;;;;;;4902202;29;20051;-87
2023/01/23 22:14:50;;;;;;;;;;;3.60;99.90;;;;;;4902536;29;20531;-86
2023/01/23 22:17:15;;;;;;;32.73;16.17;;;3.50;99.90;;;;;;4924629;23;19951;-88
2023/01/23 22:19:53;;;;;;;29.83;15.50;;;1.80;99.90;;;;;;4926601;28;20167;-87
2023/01/23 22:22:44;;;;;;;31.13;15.90;;;3.80;99.90;;;;;;4928032;23;20139;-87
2023/01/23 22:25:19;;;;;;;33.00;15.97;;;2.50;99.90;;;;;;4917390;29;20390;-87
2023/01/23 22:27:54;;;;;;;32.40;15.70;;;2.10;99.90;;;;;;4902012;29;20044;-87
2023/01/23 22:30:28;;;;;;;33.97;20.27;;;4.60;99.90;;;;;;4906920;23;20063;-87
2023/01/23 22:33:12;;;;;;;30.17;15.77;;;2.40;99.90;;;;;;4862677;29;20152;-87
2023/01/23 22:35:38;;;;;;;32.47;17.27;;;3.60;99.90;;;;;;4884473;29;20048;-87
2023/01/23 22:38:07;;;;;;;33.10;17.03;;;2.50;99.90;;;;;;4869001;29;20096;-85
2023/01/23 22:41:12;;;;;;;30.87;16.77;;;3.30;99.90;;;;;;4841834;29;20054;-85
2023/01/23 22:46:55;;;;;;;;;;;3.00;99.90;;;;;;5062334;23;20386;-89
2023/01/23 22:50:12;;;;;;;36.43;18.83;;;2.80;99.90;;;;;;4905350;23;20286;-89
2023/01/23 22:55:25;;;;;;;37.00;22.10;;;2.40;99.90;;;;;;4896827;29;20076;-89
2023/01/23 22:58:09;;;;;;;34.33;17.60;;;2.70;99.90;;;;;;4924030;23;20048;-89
2023/01/23 23:00:55;;;;;;;36.42;18.38;;;1.60;99.90;;;;;;4907139;29;20040;-89
2023/01/23 23:03:32;;;;;;;31.73;16.17;;;2.60;99.90;;;;;;4888956;29;20484;-88
2023/01/23 23:06:51;;;;;;;31.80;16.10;;;2.50;99.90;;;;;;4920034;23;20405;-87
2023/01/23 23:10:12;;;;;;;30.77;15.93;;;3.20;99.90;;;;;;4823045;29;20145;-86
2023/01/23 23:12:44;;;;;;;31.60;16.23;;;1.70;99.90;;;;;;4822960;29;20135;-86
2023/01/23 23:15:24;;;;;;;31.57;16.47;;;2.30;99.90;;;;;;4916937;29;20060;-86
2023/01/23 23:17:50;;;;;;;30.90;16.00;;;2.20;99.90;;;;;;4902106;29;20054;-86
2023/01/23 23:20:34;;;;;;;32.03;16.33;;;2.40;99.90;;;;;;4885991;29;20119;-86
2023/01/23 23:23:14;;;;;;;33.70;16.90;;;2.20;99.90;;;;;;4899004;23;20055;-86
2023/01/23 23:25:59;;;;;;;28.93;15.73;;;2.00;99.90;;;;;;4919020;29;20044;-86
2023/01/23 23:28:25;;;;;;;29.57;15.40;;;3.60;99.90;;;;;;4925425;29;20055;-86
2023/01/23 23:31:08;;;;;;;33.03;16.07;;;3.60;99.90;;;;;;4926102;29;20044;-85
2023/01/23 23:33:34;;;;;;;31.37;15.93;;;2.60;99.90;;;;;;4927144;29;20025;-85
2023/01/23 23:36:19;;;;;;;30.67;15.93;;;2.10;99.90;;;;;;4893002;29;20049;-85